createdAt,value
2018-11-12T00:01:40.937Z,11.90
2018-11-12T00:04:08.486Z,11.90
2018-11-12T00:06:36.074Z,11.90
2018-11-12T00:09:03.628Z,11.90
2018-11-12T00:11:31.175Z,11.90
2018-11-12T00:13:58.761Z,11.90
2018-11-12T00:16:27.080Z,11.80
2018-11-12T00:18:54.628Z,11.80
2018-11-12T00:21:22.226Z,11.80
2018-11-12T00:23:49.785Z,11.80
2018-11-12T00:26:17.345Z,11.80
2018-11-12T00:28:44.937Z,11.80
2018-11-12T00:31:12.490Z,11.80
2018-11-12T00:33:40.036Z,11.80
2018-11-12T00:36:07.631Z,11.80
2018-11-12T00:38:35.943Z,11.80
2018-11-12T00:41:03.502Z,11.80
2018-11-12T00:43:31.081Z,11.80
2018-11-12T00:45:58.644Z,11.80
2018-11-12T00:48:26.230Z,11.80
2018-11-12T00:50:53.785Z,11.80
2018-11-12T00:53:21.641Z,11.80
2018-11-12T00:55:49.262Z,11.80
2018-11-12T00:58:17.584Z,11.80
2018-11-12T01:00:45.135Z,11.80
2018-11-12T01:03:12.735Z,11.80
2018-11-12T01:05:40.280Z,11.80
2018-11-12T01:08:07.829Z,11.70
2018-11-12T01:10:35.415Z,11.80
2018-11-12T01:13:02.972Z,11.80
2018-11-12T01:15:30.538Z,11.80
2018-11-12T01:17:58.126Z,11.80
2018-11-12T01:20:26.445Z,11.90
2018-11-12T01:22:54.326Z,11.90
2018-11-12T01:25:21.875Z,11.90
2018-11-12T01:27:49.433Z,11.80
2018-11-12T01:30:17.020Z,11.80
2018-11-12T01:32:44.586Z,11.70
2018-11-12T01:35:12.140Z,11.70
2018-11-12T01:37:39.733Z,11.80
2018-11-12T01:40:08.048Z,11.80
2018-11-12T01:42:35.623Z,11.70
2018-11-12T01:45:03.232Z,11.70
2018-11-12T01:47:30.785Z,11.70
2018-11-12T01:49:58.345Z,11.70
2018-11-12T01:52:25.929Z,11.60
2018-11-12T01:54:54.252Z,11.60
2018-11-12T01:57:21.800Z,11.60
2018-11-12T01:59:49.389Z,11.60
2018-11-12T02:02:16.942Z,11.60
2018-11-12T02:04:44.527Z,11.60
2018-11-12T02:07:12.078Z,11.60
2018-11-12T02:09:39.630Z,11.60
2018-11-12T02:12:07.187Z,11.60
2018-11-12T02:14:34.792Z,11.60
2018-11-12T02:17:02.336Z,11.60
2018-11-12T02:19:29.891Z,11.60
2018-11-12T02:21:57.501Z,11.70
2018-11-12T02:24:25.042Z,11.70
2018-11-12T02:26:52.595Z,11.80
2018-11-12T02:29:20.182Z,11.80
2018-11-12T02:31:47.749Z,11.80
2018-11-12T02:34:15.296Z,11.80
2018-11-12T02:36:43.403Z,11.80
2018-11-12T02:39:10.957Z,11.80
2018-11-12T02:41:38.508Z,11.80
2018-11-12T02:44:06.492Z,11.70
2018-11-12T02:46:34.365Z,11.70
2018-11-12T02:49:01.950Z,11.70
2018-11-12T02:51:29.506Z,11.70
2018-11-12T02:53:57.064Z,11.60
2018-11-12T02:56:24.629Z,11.70
2018-11-12T02:58:52.239Z,11.60
2018-11-12T03:01:19.837Z,11.80
2018-11-12T03:03:47.341Z,11.80
2018-11-12T03:06:14.925Z,11.80
2018-11-12T03:08:42.482Z,11.80
2018-11-12T03:11:10.037Z,11.80
2018-11-12T03:13:37.637Z,11.80
2018-11-12T03:16:05.164Z,11.80
2018-11-12T03:18:32.767Z,11.80
2018-11-12T03:21:00.329Z,11.80
2018-11-12T03:23:27.876Z,11.90
2018-11-12T03:25:55.472Z,12.10
2018-11-12T03:28:23.261Z,12.10
2018-11-12T03:30:51.576Z,12.20
2018-11-12T03:33:19.154Z,12.10
2018-11-12T03:35:46.715Z,12.10
2018-11-12T03:38:14.322Z,12.00
2018-11-12T03:40:41.881Z,11.90
2018-11-12T03:43:10.200Z,11.80
2018-11-12T03:45:37.786Z,11.80
2018-11-12T03:48:05.340Z,11.80
2018-11-12T03:50:32.898Z,11.80
2018-11-12T03:53:00.470Z,11.80
2018-11-12T03:55:28.035Z,11.80
2018-11-12T03:57:55.644Z,11.80
2018-11-12T04:00:24.043Z,12.00
2018-11-12T04:02:51.525Z,11.90
2018-11-12T04:05:19.108Z,11.90
2018-11-12T04:07:46.687Z,11.90
2018-11-12T04:10:14.233Z,11.90
2018-11-12T04:12:41.823Z,12.00
2018-11-12T04:15:10.152Z,12.00
2018-11-12T04:17:37.709Z,12.00
2018-11-12T04:20:05.300Z,12.00
2018-11-12T04:22:32.850Z,11.90
2018-11-12T04:25:00.398Z,11.90
2018-11-12T04:27:27.980Z,11.90
2018-11-12T04:29:55.533Z,11.90
2018-11-12T04:32:23.129Z,11.90
2018-11-12T04:34:51.457Z,12.00
2018-11-12T04:37:19.014Z,12.00
2018-11-12T04:39:46.596Z,12.10
2018-11-12T04:42:14.150Z,12.10
2018-11-12T04:44:41.741Z,12.00
2018-11-12T04:47:09.292Z,12.20
2018-11-12T04:49:36.848Z,12.20
2018-11-12T04:52:04.420Z,12.10
2018-11-12T04:54:32.737Z,12.10
2018-11-12T04:57:00.325Z,12.10
2018-11-12T04:59:27.881Z,12.00
2018-11-12T05:01:55.501Z,12.00
2018-11-12T05:04:23.720Z,12.00
2018-11-12T05:06:51.274Z,12.00
2018-11-12T05:09:18.825Z,12.00
2018-11-12T05:11:46.710Z,11.90
2018-11-12T05:14:14.260Z,11.90
2018-11-12T05:16:41.890Z,11.90
2018-11-12T05:19:09.410Z,12.10
2018-11-12T05:21:36.966Z,12.10
2018-11-12T05:24:04.548Z,12.10
2018-11-12T05:26:32.096Z,12.20
2018-11-12T05:28:59.696Z,12.40
2018-11-12T05:31:28.008Z,12.20
2018-11-12T05:33:55.561Z,12.20
2018-11-12T05:36:23.160Z,12.20
2018-11-12T05:38:50.709Z,12.10
2018-11-12T05:41:18.569Z,12.00
2018-11-12T05:43:46.157Z,12.10
2018-11-12T05:46:13.711Z,12.30
2018-11-12T05:48:41.662Z,12.30
2018-11-12T05:51:09.218Z,12.20
2018-11-12T05:53:36.771Z,12.30
2018-11-12T05:56:04.359Z,12.30
2018-11-12T05:58:31.919Z,12.30
2018-11-12T06:00:59.479Z,12.20
2018-11-12T06:03:27.339Z,12.20
2018-11-12T06:05:54.899Z,12.10
2018-11-12T06:08:22.459Z,12.10
2018-11-12T06:10:50.057Z,12.00
2018-11-12T06:13:17.608Z,12.00
2018-11-12T06:15:45.172Z,12.00
2018-11-12T06:18:12.796Z,12.00
2018-11-12T06:20:40.354Z,12.00
2018-11-12T06:23:07.913Z,12.00
2018-11-12T06:25:35.502Z,12.00
2018-11-12T06:28:03.067Z,12.00
2018-11-12T06:30:30.641Z,12.00
2018-11-12T06:32:58.238Z,11.90
2018-11-12T06:35:25.793Z,12.10
2018-11-12T06:37:53.343Z,12.20
2018-11-12T06:40:21.722Z,12.20
2018-11-12T06:42:49.343Z,12.10
2018-11-12T06:45:17.200Z,12.10
2018-11-12T06:47:44.749Z,12.10
2018-11-12T06:50:12.311Z,12.10
2018-11-12T06:52:39.992Z,12.00
2018-11-12T06:55:08.262Z,12.00
2018-11-12T06:57:35.815Z,12.00
2018-11-12T07:00:03.797Z,12.00
2018-11-12T07:02:31.368Z,12.00
2018-11-12T07:04:58.927Z,12.10
2018-11-12T07:07:27.318Z,12.10
2018-11-12T07:12:25.990Z,12.40
2018-11-12T07:14:53.588Z,12.60
2018-11-12T07:17:21.150Z,12.70
2018-11-12T07:19:48.770Z,12.80
2018-11-12T07:22:16.326Z,12.90
2018-11-12T07:24:43.880Z,13.00
2018-11-12T07:27:11.488Z,13.00
2018-11-12T07:29:39.044Z,13.00
2018-11-12T07:32:06.598Z,13.10
2018-11-12T07:34:34.184Z,13.20
2018-11-12T07:37:01.744Z,13.30
2018-11-12T07:39:29.691Z,13.30
2018-11-12T07:41:57.274Z,13.30
2018-11-12T07:44:24.806Z,13.50
2018-11-12T07:46:52.439Z,13.50
2018-11-12T07:49:19.994Z,13.60
2018-11-12T07:51:47.551Z,13.60
2018-11-12T07:54:15.918Z,13.60
2018-11-12T07:56:43.478Z,13.60
2018-11-12T07:59:11.030Z,13.70
2018-11-12T08:01:38.609Z,13.70
2018-11-12T08:04:06.939Z,13.80
2018-11-12T08:06:34.816Z,13.80
2018-11-12T08:09:02.424Z,13.90
2018-11-12T08:11:29.939Z,13.90
2018-11-12T08:13:57.528Z,13.80
2018-11-12T08:16:25.081Z,14.00
2018-11-12T08:18:52.683Z,14.00
2018-11-12T08:21:20.239Z,14.00
2018-11-12T08:23:47.798Z,14.20
2018-11-12T08:26:15.415Z,14.20
2018-11-12T08:28:42.981Z,14.20
2018-11-12T08:31:10.930Z,14.20
2018-11-12T08:33:39.340Z,14.30
2018-11-12T08:36:06.908Z,14.40
2018-11-12T08:38:34.455Z,14.40
2018-11-12T08:41:02.112Z,14.50
2018-11-12T08:43:30.365Z,14.60
2018-11-12T08:45:58.013Z,14.60
2018-11-12T08:48:25.583Z,14.80
2018-11-12T08:50:53.096Z,14.80
2018-11-12T08:53:22.571Z,14.90
2018-11-12T08:55:50.128Z,14.90
2018-11-12T08:58:18.406Z,14.90
2018-11-12T09:00:45.385Z,14.90
2018-11-12T09:03:12.848Z,15.00
2018-11-12T09:05:41.204Z,15.00
2018-11-12T09:08:08.779Z,15.00
2018-11-12T09:10:36.342Z,15.00
2018-11-12T09:13:03.900Z,15.00
2018-11-12T09:15:31.517Z,15.10
2018-11-12T09:17:59.074Z,15.10
2018-11-12T09:20:26.651Z,15.10
2018-11-12T09:22:56.028Z,15.10
2018-11-12T09:25:23.544Z,15.10
2018-11-12T09:27:51.102Z,15.10
2018-11-12T09:30:18.715Z,15.30
2018-11-12T09:32:46.531Z,15.30
2018-11-12T09:35:13.839Z,15.40
2018-11-12T09:37:41.447Z,15.50
2018-11-12T09:40:09.054Z,15.50
2018-11-12T09:42:36.648Z,15.50
2018-11-12T09:45:04.210Z,15.50
2018-11-12T09:47:31.801Z,15.50
2018-11-12T09:49:59.391Z,15.50
2018-11-12T09:52:26.948Z,15.50
2018-11-12T09:54:54.513Z,15.60
2018-11-12T09:57:22.942Z,15.60
2018-11-12T09:59:50.505Z,15.60
2018-11-12T10:02:18.564Z,15.60
2018-11-12T10:04:47.355Z,15.60
2018-11-12T10:07:15.270Z,15.70
2018-11-12T10:09:42.433Z,15.70
2018-11-12T10:12:11.367Z,15.90
2018-11-12T10:14:39.868Z,15.80
2018-11-12T10:17:07.903Z,16.10
2018-11-12T10:19:33.691Z,16.20
2018-11-12T10:22:01.186Z,16.20
2018-11-12T10:24:28.792Z,16.30
2018-11-12T10:26:56.352Z,16.40
2018-11-12T10:29:23.916Z,16.50
2018-11-12T10:31:51.560Z,16.60
2018-11-12T10:34:19.120Z,16.70
2018-11-12T10:36:46.695Z,17.00
2018-11-12T10:39:14.277Z,17.00
2018-11-12T10:41:41.840Z,17.10
2018-11-12T10:44:09.777Z,17.20
2018-11-12T10:46:37.328Z,17.30
2018-11-12T10:49:04.911Z,17.40
2018-11-12T10:51:33.384Z,17.40
2018-11-12T10:54:01.066Z,17.40
2018-11-12T10:56:28.513Z,17.60
2018-11-12T10:58:56.992Z,17.70
2018-11-12T11:01:24.557Z,17.70
2018-11-12T11:03:52.116Z,17.70
2018-11-12T11:06:19.703Z,17.70
2018-11-12T11:08:47.305Z,17.70
2018-11-12T11:11:14.858Z,17.70
2018-11-12T11:13:42.481Z,17.80
2018-11-12T11:16:10.732Z,17.80
2018-11-12T11:18:38.295Z,17.90
2018-11-12T11:21:05.882Z,17.90
2018-11-12T11:23:33.443Z,18.00
2018-11-12T11:26:01.003Z,18.10
2018-11-12T11:28:29.171Z,18.10
2018-11-12T11:30:56.783Z,18.10
2018-11-12T11:33:24.293Z,18.10
2018-11-12T11:35:51.907Z,18.30
2018-11-12T11:38:20.518Z,18.40
2018-11-12T11:40:48.161Z,18.40
2018-11-12T11:43:16.446Z,18.50
2018-11-12T11:45:44.005Z,18.50
2018-11-12T11:48:11.640Z,18.50
2018-11-12T11:50:39.247Z,18.50
2018-11-12T11:53:06.727Z,18.60
2018-11-12T11:55:34.345Z,18.70
2018-11-12T11:58:01.898Z,18.90
2018-11-12T12:00:29.940Z,19.00
2018-11-12T12:02:58.625Z,18.90
2018-11-12T12:05:27.582Z,18.90
2018-11-12T12:07:56.519Z,18.80
2018-11-12T12:10:25.142Z,18.70
2018-11-12T12:12:52.698Z,18.70
2018-11-12T12:15:20.256Z,18.70
2018-11-12T12:17:47.896Z,18.70
2018-11-12T12:20:15.469Z,18.70
2018-11-12T12:22:43.072Z,18.80
2018-11-12T12:25:10.799Z,18.70
2018-11-12T12:27:38.496Z,18.70
2018-11-12T12:30:06.059Z,18.70
2018-11-12T12:32:33.726Z,18.70
2018-11-12T12:35:02.517Z,18.60
2018-11-12T12:37:30.111Z,18.60
2018-11-12T12:39:57.706Z,18.60
2018-11-12T12:42:25.273Z,18.50
2018-11-12T12:44:52.911Z,18.50
2018-11-12T12:47:20.431Z,18.50
2018-11-12T12:49:47.993Z,18.50
2018-11-12T12:52:15.546Z,18.50
2018-11-12T12:54:43.617Z,18.50
2018-11-12T12:57:11.179Z,18.50
2018-11-12T12:59:38.774Z,18.40
2018-11-12T13:02:06.359Z,18.50
2018-11-12T13:04:34.663Z,18.50
2018-11-12T13:07:02.224Z,18.50
2018-11-12T13:09:29.859Z,18.50
2018-11-12T13:11:57.421Z,18.50
2018-11-12T13:14:25.009Z,18.60
2018-11-12T13:16:53.042Z,18.50
2018-11-12T13:19:21.362Z,18.60
2018-11-12T13:21:48.919Z,18.50
2018-11-12T13:24:17.738Z,18.60
2018-11-12T13:26:45.293Z,18.60
2018-11-12T13:29:12.848Z,18.60
2018-11-12T13:31:40.693Z,18.60
2018-11-12T13:34:08.261Z,18.60
2018-11-12T13:36:35.821Z,18.70
2018-11-12T13:39:03.410Z,18.70
2018-11-12T13:41:30.959Z,18.70
2018-11-12T13:43:58.587Z,18.70
2018-11-12T13:46:26.194Z,18.60
2018-11-12T13:48:53.701Z,18.50
2018-11-12T13:51:22.080Z,18.40
2018-11-12T13:53:50.630Z,18.30
2018-11-12T13:56:18.185Z,18.30
2018-11-12T13:58:45.823Z,18.20
2018-11-12T14:01:13.384Z,18.30
2018-11-12T14:03:40.940Z,18.20
2018-11-12T14:06:08.561Z,18.20
2018-11-12T14:08:36.888Z,18.10
2018-11-12T14:11:04.447Z,18.00
2018-11-12T14:13:32.075Z,18.00
2018-11-12T14:15:59.640Z,17.90
2018-11-12T14:18:27.201Z,17.80
2018-11-12T14:20:54.925Z,17.80
2018-11-12T14:23:22.398Z,17.70
2018-11-12T14:25:49.950Z,17.70
2018-11-12T14:28:17.831Z,17.70
2018-11-12T14:30:45.376Z,17.60
2018-11-12T14:33:13.003Z,17.80
2018-11-12T14:35:40.595Z,17.90
2018-11-12T14:38:08.857Z,18.10
2018-11-12T14:40:36.462Z,18.10
2018-11-12T14:43:04.793Z,17.90
2018-11-12T14:45:32.361Z,17.90
2018-11-12T14:48:00.022Z,17.80
2018-11-12T14:50:27.585Z,17.70
2018-11-12T14:52:55.151Z,17.60
2018-11-12T14:55:22.790Z,17.50
2018-11-12T14:57:50.349Z,17.50
2018-11-12T15:00:17.906Z,17.40
2018-11-12T15:02:45.505Z,17.30
2018-11-12T15:05:13.060Z,17.20
2018-11-12T15:07:40.671Z,17.10
2018-11-12T15:10:08.996Z,16.90
2018-11-12T15:12:36.556Z,16.90
2018-11-12T15:15:04.233Z,16.80
2018-11-12T15:17:32.507Z,16.80
2018-11-12T15:20:00.068Z,16.70
2018-11-12T15:22:27.717Z,16.70
2018-11-12T15:24:55.243Z,16.60
2018-11-12T15:27:22.803Z,16.60
2018-11-12T15:29:50.402Z,16.60
2018-11-12T15:32:17.963Z,16.50
2018-11-12T15:34:45.525Z,16.40
2018-11-12T15:37:14.115Z,16.40
2018-11-12T15:39:41.485Z,16.30
2018-11-12T15:42:09.039Z,16.20
2018-11-12T15:44:36.653Z,16.20
2018-11-12T15:47:04.208Z,16.20
2018-11-12T15:49:32.534Z,16.10
2018-11-12T15:52:00.136Z,16.10
2018-11-12T15:54:28.459Z,16.00
2018-11-12T15:56:56.078Z,16.00
2018-11-12T15:59:23.902Z,16.00
2018-11-12T16:01:51.462Z,16.00
2018-11-12T16:04:19.032Z,15.90
2018-11-12T16:06:47.579Z,15.90
2018-11-12T16:09:15.075Z,15.90
2018-11-12T16:11:42.650Z,15.90
2018-11-12T16:14:10.260Z,15.80
2018-11-12T16:16:37.811Z,15.80
2018-11-12T16:19:05.379Z,15.80
2018-11-12T16:21:33.790Z,15.90
2018-11-12T16:24:01.355Z,15.80
2018-11-12T16:26:28.967Z,15.80
2018-11-12T16:28:56.519Z,15.70
2018-11-12T16:31:24.844Z,15.60
2018-11-12T16:33:52.405Z,15.60
2018-11-12T16:36:20.049Z,15.60
2018-11-12T16:38:47.617Z,15.50
2018-11-12T16:41:15.179Z,15.50
2018-11-12T16:43:42.792Z,15.50
2018-11-12T16:46:10.435Z,15.40
2018-11-12T16:48:37.906Z,15.40
2018-11-12T16:51:05.528Z,15.50
2018-11-12T16:53:33.078Z,15.70
2018-11-12T16:56:00.645Z,15.70
2018-11-12T16:58:29.113Z,15.80
2018-11-12T17:00:56.679Z,15.70
2018-11-12T17:03:24.238Z,15.70
2018-11-12T17:05:52.661Z,15.60
2018-11-12T17:08:20.227Z,15.50
2018-11-12T17:10:47.783Z,15.40
2018-11-12T17:13:15.418Z,15.30
2018-11-12T17:15:43.221Z,15.30
2018-11-12T17:18:10.783Z,15.30
2018-11-12T17:20:38.371Z,15.20
2018-11-12T17:23:06.736Z,15.00
2018-11-12T17:25:34.343Z,15.00
2018-11-12T17:28:01.927Z,15.00
2018-11-12T17:30:29.490Z,15.00
2018-11-12T17:32:57.099Z,14.90
2018-11-12T17:35:25.426Z,14.80
2018-11-12T17:37:53.000Z,14.80
2018-11-12T17:40:21.391Z,14.70
2018-11-12T17:42:48.945Z,14.70
2018-11-12T17:45:16.504Z,14.60
2018-11-12T17:47:44.131Z,14.60
2018-11-12T17:50:11.714Z,14.50
2018-11-12T17:52:39.334Z,14.50
2018-11-12T17:55:06.914Z,14.40
2018-11-12T17:57:34.471Z,14.50
2018-11-12T18:00:02.025Z,14.40
2018-11-12T18:02:30.415Z,14.30
2018-11-12T18:04:57.994Z,14.30
2018-11-12T18:07:25.682Z,14.30
2018-11-12T18:09:53.175Z,14.20
2018-11-12T18:12:21.274Z,14.20
2018-11-12T18:14:49.694Z,14.20
2018-11-12T18:17:17.254Z,14.20
2018-11-12T18:19:44.820Z,14.20
2018-11-12T18:22:12.455Z,14.20
2018-11-12T18:24:40.546Z,14.20
2018-11-12T18:27:08.115Z,14.20
2018-11-12T18:29:36.501Z,14.20
2018-11-12T18:32:04.065Z,14.10
2018-11-12T18:34:31.638Z,14.00
2018-11-12T18:36:59.258Z,13.90
2018-11-12T18:39:26.821Z,13.80
2018-11-12T18:41:54.375Z,13.90
2018-11-12T18:44:21.985Z,13.80
2018-11-12T18:46:49.554Z,13.70
2018-11-12T18:49:17.116Z,13.60
2018-11-12T18:51:44.723Z,13.70
2018-11-12T18:54:12.308Z,13.60
2018-11-12T18:56:39.849Z,13.60
2018-11-12T18:59:08.049Z,13.50
2018-11-12T19:01:35.625Z,13.50
2018-11-12T19:04:03.185Z,13.50
2018-11-12T19:06:30.784Z,13.60
2018-11-12T19:08:59.119Z,13.70
2018-11-12T19:11:26.687Z,13.70
2018-11-12T19:13:54.322Z,13.60
2018-11-12T19:16:21.890Z,13.70
2018-11-12T19:18:49.450Z,13.70
2018-11-12T19:21:17.447Z,13.60
2018-11-12T19:23:45.288Z,13.50
2018-11-12T19:26:12.846Z,13.50
2018-11-12T19:28:40.436Z,13.40
2018-11-12T19:31:08.010Z,13.30
2018-11-12T19:33:35.639Z,13.20
2018-11-12T19:36:03.193Z,13.30
2018-11-12T19:38:30.778Z,13.30
2018-11-12T19:40:58.686Z,13.30
2018-11-12T19:43:26.170Z,13.30
2018-11-12T19:45:53.792Z,13.30
2018-11-12T19:48:21.351Z,13.20
2018-11-12T19:50:48.918Z,13.20
2018-11-12T19:53:17.269Z,13.20
2018-11-12T19:55:44.843Z,13.20
2018-11-12T19:58:13.500Z,13.30
2018-11-12T20:00:41.062Z,13.20
2018-11-12T20:03:08.631Z,13.30
2018-11-12T20:05:36.241Z,13.30
2018-11-12T20:08:03.816Z,13.20
2018-11-12T20:10:31.388Z,13.20
2018-11-12T20:12:58.996Z,13.20
2018-11-12T20:15:26.606Z,13.10
2018-11-12T20:17:54.131Z,13.10
2018-11-12T20:20:22.502Z,13.10
2018-11-12T20:22:50.065Z,13.10
2018-11-12T20:25:17.629Z,13.10
2018-11-12T20:27:45.229Z,13.00
2018-11-12T20:30:12.791Z,13.00
2018-11-12T20:32:40.343Z,12.90
2018-11-12T20:35:07.950Z,12.80
2018-11-12T20:37:35.507Z,12.80
2018-11-12T20:40:03.077Z,12.70
2018-11-12T20:42:30.695Z,12.70
2018-11-12T20:44:58.254Z,12.60
2018-11-12T20:47:25.820Z,12.60
2018-11-12T20:49:54.483Z,12.60
2018-11-12T20:52:22.816Z,12.60
2018-11-12T20:54:50.377Z,12.50
2018-11-12T20:57:17.978Z,12.60
2018-11-12T20:59:46.305Z,12.50
2018-11-12T21:02:13.874Z,12.50
2018-11-12T21:04:41.743Z,12.50
2018-11-12T21:07:09.301Z,12.50
2018-11-12T21:09:36.879Z,12.50
2018-11-12T21:12:04.465Z,12.50
2018-11-12T21:14:32.024Z,12.50
2018-11-12T21:16:59.577Z,12.50
2018-11-12T21:19:27.246Z,12.50
2018-11-12T21:21:54.775Z,12.50
2018-11-12T21:24:22.340Z,12.50
2018-11-12T21:26:49.956Z,12.50
2018-11-12T21:29:17.525Z,12.50
2018-11-12T21:31:45.094Z,12.50
2018-11-12T21:34:12.996Z,12.50
2018-11-12T21:36:40.568Z,12.50
2018-11-12T21:39:08.136Z,12.50
2018-11-12T21:41:35.749Z,12.40
2018-11-12T21:44:03.354Z,12.40
2018-11-12T21:46:30.883Z,12.50
2018-11-12T21:48:58.493Z,12.60
2018-11-12T21:51:29.163Z,12.60
2018-11-12T21:53:56.684Z,12.50
2018-11-12T21:56:24.295Z,12.50
2018-11-12T21:58:51.860Z,12.50
2018-11-12T22:01:19.429Z,12.40
2018-11-12T22:03:48.066Z,12.40
2018-11-12T22:06:16.388Z,12.40
2018-11-12T22:08:44.023Z,12.30
2018-11-12T22:11:11.562Z,12.40
2018-11-12T22:13:39.137Z,12.30
2018-11-12T22:16:07.458Z,12.30
2018-11-12T22:18:35.665Z,12.30
2018-11-12T22:21:03.219Z,12.30
2018-11-12T22:23:30.781Z,12.30
2018-11-12T22:25:59.158Z,12.40
2018-11-12T22:28:26.714Z,12.60
2018-11-12T22:30:54.275Z,12.60
2018-11-12T22:33:21.877Z,12.60
2018-11-12T22:35:50.215Z,12.60
2018-11-12T22:38:17.785Z,12.60
2018-11-12T22:40:45.401Z,12.60
2018-11-12T22:43:12.967Z,12.70
2018-11-12T22:45:40.569Z,12.70
2018-11-12T22:48:08.106Z,12.60
2018-11-12T22:50:36.090Z,12.60
2018-11-12T22:53:03.700Z,12.50
2018-11-12T22:55:32.025Z,12.40
2018-11-12T22:57:59.594Z,12.40
2018-11-12T23:00:27.197Z,12.40
2018-11-12T23:02:55.528Z,12.50
2018-11-12T23:05:23.092Z,12.40
2018-11-12T23:07:50.683Z,12.50
2018-11-12T23:10:18.241Z,12.40
2018-11-12T23:12:47.011Z,12.40
2018-11-12T23:15:14.568Z,12.30
2018-11-12T23:17:42.127Z,12.30
2018-11-12T23:20:09.717Z,12.20
2018-11-12T23:22:37.273Z,12.20
2018-11-12T23:25:04.841Z,12.20
2018-11-12T23:27:32.440Z,12.20
2018-11-12T23:30:00.012Z,12.30
2018-11-12T23:32:27.570Z,12.30
2018-11-12T23:34:55.569Z,12.30
2018-11-12T23:37:23.135Z,12.20
2018-11-12T23:39:50.701Z,12.10
2018-11-12T23:42:18.309Z,12.10
2018-11-12T23:44:45.876Z,12.10
2018-11-12T23:47:13.443Z,12.00
2018-11-12T23:49:41.041Z,12.00
2018-11-12T23:52:08.676Z,12.00
2018-11-12T23:54:37.088Z,12.00
2018-11-12T23:57:04.646Z,12.00
2018-11-12T23:59:32.216Z,12.00
